createdAt,value
2017-03-19T00:00:13.189Z,934.56
2017-03-19T00:00:41.345Z,934.57
2017-03-19T00:01:09.594Z,934.59
2017-03-19T00:01:37.710Z,934.59
2017-03-19T00:02:05.985Z,934.6
2017-03-19T00:02:34.286Z,934.59
2017-03-19T00:03:02.559Z,934.62
2017-03-19T00:03:30.763Z,934.67
2017-03-19T00:03:58.989Z,934.62
2017-03-19T00:04:27.184Z,934.68
2017-03-19T00:04:55.401Z,934.65
2017-03-19T00:05:23.674Z,934.66
2017-03-19T00:05:51.861Z,934.65
2017-03-19T00:06:20.312Z,934.67
2017-03-19T00:06:48.408Z,934.7
2017-03-19T00:07:16.639Z,934.62
2017-03-19T00:07:44.897Z,934.7
2017-03-19T00:08:13.141Z,934.69
2017-03-19T00:08:41.290Z,934.67
2017-03-19T00:09:09.429Z,934.69
2017-03-19T00:09:37.583Z,934.69
2017-03-19T00:10:05.662Z,934.69
2017-03-19T00:10:33.963Z,934.6
2017-03-19T00:11:02.184Z,934.7
2017-03-19T00:11:30.626Z,934.76
2017-03-19T00:11:58.789Z,934.7
2017-03-19T00:12:26.932Z,934.73
2017-03-19T00:12:55.147Z,934.7
2017-03-19T00:13:23.328Z,934.77
2017-03-19T00:13:51.558Z,934.73
2017-03-19T00:14:19.826Z,934.83
2017-03-19T00:14:47.972Z,934.71
2017-03-19T00:15:16.047Z,934.76
2017-03-19T00:15:44.180Z,934.76
2017-03-19T00:16:12.272Z,934.78
2017-03-19T00:16:40.692Z,934.74
2017-03-19T00:17:08.951Z,934.76
2017-03-19T00:17:37.202Z,934.78
2017-03-19T00:18:05.475Z,934.73
2017-03-19T00:18:33.637Z,934.8
2017-03-19T00:19:01.929Z,934.78
2017-03-19T00:19:30.189Z,934.85
2017-03-19T00:19:58.453Z,934.79
2017-03-19T00:20:26.706Z,934.83
2017-03-19T00:20:54.905Z,934.83
2017-03-19T00:21:23.044Z,934.82
2017-03-19T00:21:51.197Z,934.71
2017-03-19T00:22:19.325Z,934.81
2017-03-19T00:22:47.508Z,934.87
2017-03-19T00:23:15.656Z,934.79
2017-03-19T00:23:43.811Z,934.84
2017-03-19T00:24:11.979Z,934.85
2017-03-19T00:24:40.159Z,934.85
2017-03-19T00:25:08.282Z,934.83
2017-03-19T00:25:36.508Z,934.92
2017-03-19T00:26:04.818Z,934.87
2017-03-19T00:26:33.100Z,934.84
2017-03-19T00:27:01.287Z,934.87
2017-03-19T00:27:29.350Z,934.81
2017-03-19T00:27:57.588Z,934.86
2017-03-19T00:28:25.782Z,934.87
2017-03-19T00:28:54.093Z,934.89
2017-03-19T00:29:22.366Z,934.89
2017-03-19T00:29:50.600Z,934.94
2017-03-19T00:30:18.852Z,934.83
2017-03-19T00:30:46.889Z,934.87
2017-03-19T00:31:14.911Z,934.93
2017-03-19T00:31:43.161Z,934.88
2017-03-19T00:32:11.219Z,934.85
2017-03-19T00:32:39.437Z,934.85
2017-03-19T00:33:07.647Z,934.84
2017-03-19T00:33:35.855Z,934.92
2017-03-19T00:34:03.918Z,934.88
2017-03-19T00:34:32.091Z,934.88
2017-03-19T00:35:00.357Z,934.93
2017-03-19T00:35:28.523Z,934.88
2017-03-19T00:35:56.766Z,934.89
2017-03-19T00:36:25.115Z,934.87
2017-03-19T00:36:53.366Z,934.81
2017-03-19T00:37:21.613Z,934.85
2017-03-19T00:37:49.864Z,934.87
2017-03-19T00:38:18.029Z,934.91
2017-03-19T00:38:46.179Z,934.92
2017-03-19T00:39:14.457Z,934.9
2017-03-19T00:39:42.670Z,934.86
2017-03-19T00:40:10.723Z,934.87
2017-03-19T00:40:38.929Z,935.03
2017-03-19T00:41:07.076Z,934.85
2017-03-19T00:41:35.232Z,934.9
2017-03-19T00:42:03.403Z,934.89
2017-03-19T00:42:31.644Z,934.88
2017-03-19T00:42:59.763Z,934.82
2017-03-19T00:43:27.971Z,934.87
2017-03-19T00:43:56.192Z,934.81
2017-03-19T00:44:24.453Z,934.85
2017-03-19T00:44:52.708Z,934.88
2017-03-19T00:45:21.017Z,934.84
2017-03-19T00:45:49.198Z,934.85
2017-03-19T00:46:17.457Z,934.87
2017-03-19T00:46:45.813Z,934.89
2017-03-19T00:47:14.026Z,934.9
2017-03-19T00:47:42.217Z,934.92
2017-03-19T00:48:10.469Z,934.96
2017-03-19T00:48:38.719Z,934.89
2017-03-19T00:49:06.982Z,934.93
2017-03-19T00:49:35.198Z,934.97
2017-03-19T00:50:03.244Z,934.94
2017-03-19T00:50:31.425Z,934.93
2017-03-19T00:50:59.644Z,934.94
2017-03-19T00:51:27.849Z,934.89
2017-03-19T00:51:56.291Z,934.93
2017-03-19T00:52:24.444Z,934.92
2017-03-19T00:52:52.563Z,934.83
2017-03-19T00:53:20.839Z,934.89
2017-03-19T00:53:49.082Z,934.92
2017-03-19T00:54:17.361Z,934.89
2017-03-19T00:54:45.576Z,934.93
2017-03-19T00:55:13.816Z,934.87
2017-03-19T00:55:42.067Z,935.03
2017-03-19T00:56:10.242Z,934.95
2017-03-19T00:56:38.380Z,934.9
2017-03-19T00:57:06.607Z,934.94
2017-03-19T00:57:34.835Z,934.96
2017-03-19T00:58:02.826Z,934.91
2017-03-19T00:58:30.987Z,934.92
2017-03-19T00:58:59.111Z,934.84
2017-03-19T00:59:27.378Z,934.89
2017-03-19T00:59:55.615Z,934.9
2017-03-19T01:00:23.818Z,934.9
2017-03-19T01:00:52.078Z,934.95
2017-03-19T01:01:20.247Z,934.93
2017-03-19T01:01:48.433Z,934.9
2017-03-19T01:02:16.479Z,934.93
2017-03-19T01:02:44.755Z,934.92
2017-03-19T01:03:12.985Z,934.95
2017-03-19T01:03:41.139Z,934.95
2017-03-19T01:04:09.310Z,934.95
2017-03-19T01:04:37.554Z,934.96
2017-03-19T01:05:05.744Z,934.95
2017-03-19T01:05:33.897Z,934.97
2017-03-19T01:06:02.171Z,934.98
2017-03-19T01:06:30.388Z,934.97
2017-03-19T01:06:58.543Z,935.03
2017-03-19T01:07:26.589Z,934.98
2017-03-19T01:07:54.661Z,934.97
2017-03-19T01:08:22.924Z,935.02
2017-03-19T01:08:51.062Z,934.98
2017-03-19T01:09:19.228Z,934.94
2017-03-19T01:09:47.454Z,934.96
2017-03-19T01:10:15.688Z,934.98
2017-03-19T01:10:43.897Z,934.92
2017-03-19T01:11:12.096Z,934.95
2017-03-19T01:11:40.254Z,934.99
2017-03-19T01:12:08.467Z,934.98
2017-03-19T01:12:36.744Z,934.98
2017-03-19T01:13:04.845Z,934.99
2017-03-19T01:13:32.905Z,934.96
2017-03-19T01:14:01.051Z,934.94
2017-03-19T01:14:29.335Z,934.97
2017-03-19T01:14:57.435Z,934.95
2017-03-19T01:15:25.674Z,934.94
2017-03-19T01:15:53.966Z,934.98
2017-03-19T01:16:22.275Z,934.96
2017-03-19T01:16:50.760Z,934.96
2017-03-19T01:17:18.997Z,934.95
2017-03-19T01:17:47.219Z,934.99
2017-03-19T01:18:15.486Z,935.02
2017-03-19T01:18:43.643Z,934.95
2017-03-19T01:19:11.615Z,934.98
2017-03-19T01:19:39.785Z,934.93
2017-03-19T01:20:07.932Z,934.95
2017-03-19T01:20:36.189Z,934.96
2017-03-19T01:21:04.413Z,934.98
2017-03-19T01:21:32.663Z,934.94
2017-03-19T01:22:01.073Z,934.93
2017-03-19T01:22:29.152Z,934.93
2017-03-19T01:22:57.018Z,934.92
2017-03-19T01:23:25.173Z,934.87
2017-03-19T01:23:53.220Z,934.9
2017-03-19T01:24:21.488Z,934.91
2017-03-19T01:24:49.672Z,934.93
2017-03-19T01:25:17.769Z,934.86
2017-03-19T01:25:45.791Z,934.94
2017-03-19T01:26:13.859Z,934.92
2017-03-19T01:26:42.127Z,934.95
2017-03-19T01:27:10.485Z,934.91
2017-03-19T01:27:38.618Z,934.86
2017-03-19T01:28:06.708Z,934.9
2017-03-19T01:28:34.887Z,934.88
2017-03-19T01:29:03.045Z,934.87
2017-03-19T01:29:31.124Z,934.9
2017-03-19T01:29:59.395Z,934.88
2017-03-19T01:30:27.431Z,934.9
2017-03-19T01:30:55.712Z,934.85
2017-03-19T01:31:23.992Z,934.87
2017-03-19T01:31:52.183Z,934.86
2017-03-19T01:32:20.576Z,934.87
2017-03-19T01:32:48.733Z,934.9
2017-03-19T01:33:16.901Z,934.85
2017-03-19T01:33:45.085Z,934.86
2017-03-19T01:34:13.252Z,934.89
2017-03-19T01:34:41.418Z,934.84
2017-03-19T01:35:09.571Z,934.84
2017-03-19T01:35:37.832Z,934.84
2017-03-19T01:36:06.077Z,934.84
2017-03-19T01:36:34.210Z,934.9
2017-03-19T01:37:02.503Z,934.83
2017-03-19T01:37:30.770Z,934.82
2017-03-19T01:37:59.036Z,934.86
2017-03-19T01:38:27.294Z,934.84
2017-03-19T01:38:55.451Z,934.81
2017-03-19T01:39:23.550Z,934.81
2017-03-19T01:39:51.837Z,934.81
2017-03-19T01:40:20.009Z,934.81
2017-03-19T01:40:48.054Z,934.76
2017-03-19T01:41:16.211Z,934.82
2017-03-19T01:41:44.446Z,934.78
2017-03-19T01:42:12.831Z,934.8
2017-03-19T01:42:41.089Z,934.8
2017-03-19T01:43:09.103Z,934.81
2017-03-19T01:43:37.301Z,934.78
2017-03-19T01:44:05.626Z,934.78
2017-03-19T01:44:33.876Z,934.81
2017-03-19T01:45:02.023Z,934.83
2017-03-19T01:45:30.190Z,934.8
2017-03-19T01:45:58.396Z,934.79
2017-03-19T01:46:26.685Z,934.81
2017-03-19T01:46:54.904Z,934.76
2017-03-19T01:47:23.090Z,934.8
2017-03-19T01:47:51.193Z,934.8
2017-03-19T01:48:19.482Z,934.79
2017-03-19T01:48:47.768Z,934.8
2017-03-19T01:49:16.035Z,934.8
2017-03-19T01:49:44.296Z,934.81
2017-03-19T01:50:12.598Z,934.82
2017-03-19T01:50:40.861Z,934.78
2017-03-19T01:51:09.146Z,934.79
2017-03-19T01:51:37.197Z,934.77
2017-03-19T01:52:05.504Z,934.76
2017-03-19T01:52:33.625Z,934.79
2017-03-19T01:53:01.592Z,934.75
2017-03-19T01:53:29.819Z,934.75
2017-03-19T01:53:58.087Z,934.75
2017-03-19T01:54:26.343Z,934.73
2017-03-19T01:54:54.571Z,934.75
2017-03-19T01:55:22.805Z,934.73
2017-03-19T01:55:51.022Z,934.7
2017-03-19T01:56:19.226Z,934.73
2017-03-19T01:56:47.456Z,934.67
2017-03-19T01:57:15.712Z,934.68
2017-03-19T01:57:44.026Z,934.71
2017-03-19T01:58:12.280Z,934.71
2017-03-19T01:58:40.318Z,934.7
2017-03-19T01:59:08.548Z,934.68
2017-03-19T01:59:36.806Z,934.68
2017-03-19T02:00:05.101Z,934.66
2017-03-19T02:00:33.269Z,934.69
2017-03-19T02:01:01.478Z,934.7
2017-03-19T02:01:29.550Z,934.69
2017-03-19T02:01:57.630Z,934.67
2017-03-19T02:02:25.931Z,934.7
2017-03-19T02:02:54.101Z,934.69
2017-03-19T02:03:22.401Z,934.74
2017-03-19T02:03:50.572Z,934.7
2017-03-19T02:04:18.638Z,934.69
2017-03-19T02:04:46.695Z,934.69
2017-03-19T02:05:14.837Z,934.68
2017-03-19T02:05:43.071Z,934.68
2017-03-19T02:06:11.111Z,934.65
2017-03-19T02:06:39.326Z,934.68
2017-03-19T02:07:07.548Z,934.66
2017-03-19T02:07:35.680Z,934.66
2017-03-19T02:08:03.890Z,934.63
2017-03-19T02:08:32.109Z,934.65
2017-03-19T02:09:00.289Z,934.68
2017-03-19T02:09:28.507Z,934.7
2017-03-19T02:09:56.768Z,934.66
2017-03-19T02:10:24.924Z,934.66
2017-03-19T02:10:53.241Z,934.66
2017-03-19T02:11:21.347Z,934.68
2017-03-19T02:11:49.657Z,934.68
2017-03-19T02:12:17.861Z,934.67
2017-03-19T02:12:46.125Z,934.66
2017-03-19T02:13:14.399Z,934.67
2017-03-19T02:13:42.481Z,934.67
2017-03-19T02:14:10.634Z,934.66
2017-03-19T02:14:38.811Z,934.65
2017-03-19T02:15:06.935Z,934.67
2017-03-19T02:15:35.183Z,934.67
2017-03-19T02:16:03.525Z,934.63
2017-03-19T02:16:31.638Z,934.63
2017-03-19T02:16:59.932Z,934.62
2017-03-19T02:17:28.132Z,934.62
2017-03-19T02:17:56.380Z,934.63
2017-03-19T02:18:24.570Z,934.64
2017-03-19T02:18:52.749Z,934.64
2017-03-19T02:19:21.008Z,934.63
2017-03-19T02:19:49.265Z,934.62
2017-03-19T02:20:17.528Z,934.59
2017-03-19T02:20:45.660Z,934.58
2017-03-19T02:21:13.860Z,934.58
2017-03-19T02:21:41.987Z,934.59
2017-03-19T02:22:10.223Z,934.59
2017-03-19T02:22:38.397Z,934.58
2017-03-19T02:23:06.691Z,934.58
2017-03-19T02:23:34.858Z,934.59
2017-03-19T02:24:03.111Z,934.53
2017-03-19T02:24:31.280Z,934.56
2017-03-19T02:24:59.543Z,934.57
2017-03-19T02:25:27.620Z,934.55
2017-03-19T02:25:56.015Z,934.55
2017-03-19T02:26:24.204Z,934.52
2017-03-19T02:26:52.428Z,934.52
2017-03-19T02:27:20.605Z,934.53
2017-03-19T02:27:48.860Z,934.48
2017-03-19T02:28:17.124Z,934.5
2017-03-19T02:28:45.267Z,934.49
2017-03-19T02:29:13.520Z,934.46
2017-03-19T02:29:41.767Z,934.46
2017-03-19T02:30:10.031Z,934.45
2017-03-19T02:30:38.208Z,934.44
2017-03-19T02:31:06.236Z,934.44
2017-03-19T02:31:34.514Z,934.43
2017-03-19T02:32:02.618Z,934.44
2017-03-19T02:32:30.869Z,934.4
2017-03-19T02:32:58.970Z,934.4
2017-03-19T02:33:27.236Z,934.4
2017-03-19T02:33:55.513Z,934.42
2017-03-19T02:34:23.763Z,934.37
2017-03-19T02:34:51.830Z,934.4
2017-03-19T02:35:20.064Z,934.37
2017-03-19T02:35:48.294Z,934.38
2017-03-19T02:36:16.593Z,934.34
2017-03-19T02:36:44.836Z,934.36
2017-03-19T02:37:12.925Z,934.36
2017-03-19T02:37:41.170Z,934.33
2017-03-19T02:38:09.366Z,934.34
2017-03-19T02:38:37.664Z,934.3
2017-03-19T02:39:05.951Z,934.32
2017-03-19T02:39:34.175Z,934.29
2017-03-19T02:40:02.452Z,934.26
2017-03-19T02:40:30.684Z,934.25
2017-03-19T02:40:59.160Z,934.27
2017-03-19T02:41:27.305Z,934.27
2017-03-19T02:41:55.464Z,934.24
2017-03-19T02:42:23.776Z,934.25
2017-03-19T02:42:51.897Z,934.25
2017-03-19T02:43:20.145Z,934.22
2017-03-19T02:43:48.387Z,934.23
2017-03-19T02:44:16.641Z,934.26
2017-03-19T02:44:44.754Z,934.26
2017-03-19T02:45:12.926Z,934.21
2017-03-19T02:45:41.102Z,934.24
2017-03-19T02:46:09.487Z,934.2
2017-03-19T02:46:37.684Z,934.2
2017-03-19T02:47:05.880Z,934.17
2017-03-19T02:47:34.142Z,934.16
2017-03-19T02:48:02.377Z,934.19
2017-03-19T02:48:30.450Z,934.16
2017-03-19T02:48:58.694Z,934.16
2017-03-19T02:49:26.891Z,934.14
2017-03-19T02:49:55.061Z,934.15
2017-03-19T02:50:23.303Z,934.14
2017-03-19T02:50:51.445Z,934.12
2017-03-19T02:51:19.711Z,934.17
2017-03-19T02:51:47.790Z,934.16
2017-03-19T02:52:15.951Z,934.15
2017-03-19T02:52:44.216Z,934.14
2017-03-19T02:53:12.365Z,934.13
2017-03-19T02:53:40.422Z,934.13
2017-03-19T02:54:08.625Z,934.1
2017-03-19T02:54:36.854Z,934.11
2017-03-19T02:55:04.965Z,934.09
2017-03-19T02:55:33.233Z,934.08
2017-03-19T02:56:01.311Z,934.07
2017-03-19T02:56:29.546Z,934.06
2017-03-19T02:56:57.747Z,934.07
2017-03-19T02:57:26.017Z,934.08
2017-03-19T02:57:54.180Z,934.05
2017-03-19T02:58:22.379Z,934.06
2017-03-19T02:58:50.640Z,934
2017-03-19T02:59:18.709Z,933.97
2017-03-19T02:59:46.950Z,934
2017-03-19T03:00:15.018Z,934.01
2017-03-19T03:00:43.072Z,934.03
2017-03-19T03:01:11.472Z,933.99
2017-03-19T03:01:39.515Z,933.99
2017-03-19T03:02:07.598Z,934
2017-03-19T03:02:35.795Z,934.01
2017-03-19T03:03:03.919Z,933.99
2017-03-19T03:03:32.194Z,933.94
2017-03-19T03:04:00.464Z,933.99
2017-03-19T03:04:28.708Z,933.98
2017-03-19T03:04:56.851Z,933.96
2017-03-19T03:05:25.008Z,933.94
2017-03-19T03:05:53.168Z,933.97
2017-03-19T03:06:21.482Z,933.94
2017-03-19T03:06:49.632Z,933.97
2017-03-19T03:07:17.822Z,933.94
2017-03-19T03:07:46.086Z,933.94
2017-03-19T03:08:14.129Z,933.97
2017-03-19T03:08:42.254Z,933.97
2017-03-19T03:09:10.443Z,933.99
2017-03-19T03:09:38.686Z,933.99
2017-03-19T03:10:06.971Z,933.97
2017-03-19T03:10:35.111Z,933.99
2017-03-19T03:11:03.409Z,933.96
2017-03-19T03:11:31.595Z,933.96
2017-03-19T03:11:59.853Z,933.99
2017-03-19T03:12:28.094Z,934
2017-03-19T03:12:56.375Z,934
2017-03-19T03:13:24.660Z,933.95
2017-03-19T03:13:52.667Z,933.97
2017-03-19T03:14:20.822Z,933.95
2017-03-19T03:14:48.867Z,934
2017-03-19T03:15:17.135Z,933.99
2017-03-19T03:15:45.399Z,934.01
2017-03-19T03:16:13.550Z,934.01
2017-03-19T03:16:41.819Z,934.02
2017-03-19T03:17:09.990Z,934.01
2017-03-19T03:17:38.058Z,934.08
2017-03-19T03:18:06.215Z,934.07
2017-03-19T03:18:34.356Z,934.02
2017-03-19T03:19:02.625Z,934.01
2017-03-19T03:19:30.769Z,934.04
2017-03-19T03:19:58.933Z,934.09
2017-03-19T03:20:27.165Z,934
2017-03-19T03:20:55.421Z,934.11
2017-03-19T03:21:23.985Z,934.09
2017-03-19T03:21:52.305Z,934.05
2017-03-19T03:22:20.169Z,934.03
2017-03-19T03:22:48.451Z,934.03
2017-03-19T03:23:16.631Z,934.05
2017-03-19T03:23:44.763Z,934.02
2017-03-19T03:24:12.924Z,934.01
2017-03-19T03:24:41.380Z,934.02
2017-03-19T03:25:09.523Z,933.99
2017-03-19T03:25:37.612Z,933.98
2017-03-19T03:26:05.822Z,934
2017-03-19T03:26:33.923Z,934.02
2017-03-19T03:27:02.056Z,933.98
2017-03-19T03:27:30.290Z,933.99
2017-03-19T03:27:58.526Z,933.96
2017-03-19T03:28:26.820Z,933.99
2017-03-19T03:28:54.867Z,934.02
2017-03-19T03:29:22.936Z,933.99
2017-03-19T03:29:51.099Z,933.98
2017-03-19T03:30:19.296Z,933.99
2017-03-19T03:30:47.496Z,933.99
2017-03-19T03:31:15.737Z,934
2017-03-19T03:31:44.074Z,933.99
2017-03-19T03:32:12.218Z,934.02
2017-03-19T03:32:40.375Z,934.02
2017-03-19T03:33:08.643Z,933.99
2017-03-19T03:33:36.726Z,933.96
2017-03-19T03:34:04.923Z,933.98
2017-03-19T03:34:33.163Z,933.99
2017-03-19T03:35:01.422Z,933.98
2017-03-19T03:35:29.623Z,934.03
2017-03-19T03:35:57.800Z,933.98
2017-03-19T03:36:25.848Z,934.01
2017-03-19T03:36:54.253Z,934.01
2017-03-19T03:37:22.315Z,933.99
2017-03-19T03:37:50.466Z,934.01
2017-03-19T03:38:18.723Z,933.99
2017-03-19T03:38:46.855Z,933.99
2017-03-19T03:39:15.049Z,933.96
2017-03-19T03:39:43.184Z,933.97
2017-03-19T03:40:11.459Z,934.03
2017-03-19T03:40:39.676Z,933.98
2017-03-19T03:41:07.880Z,934.02
2017-03-19T03:41:36.313Z,934.01
2017-03-19T03:42:04.484Z,934
2017-03-19T03:42:32.689Z,934.02
2017-03-19T03:43:00.728Z,934
2017-03-19T03:43:28.891Z,933.98
2017-03-19T03:43:57.151Z,933.97
2017-03-19T03:44:25.234Z,933.97
2017-03-19T03:44:53.466Z,934.02
2017-03-19T03:45:21.502Z,933.94
2017-03-19T03:45:49.582Z,934
2017-03-19T03:46:17.581Z,933.96
2017-03-19T03:46:45.884Z,933.97
2017-03-19T03:47:14.048Z,933.98
2017-03-19T03:47:42.213Z,934.03
2017-03-19T03:48:10.486Z,933.93
2017-03-19T03:48:38.620Z,933.96
2017-03-19T03:49:06.671Z,933.93
2017-03-19T03:49:34.761Z,933.98
2017-03-19T03:50:02.934Z,933.95
2017-03-19T03:50:31.227Z,933.91
2017-03-19T03:50:59.504Z,933.91
2017-03-19T03:51:27.642Z,933.91
2017-03-19T03:51:56.167Z,933.94
2017-03-19T03:52:24.422Z,933.94
2017-03-19T03:52:52.543Z,933.93
2017-03-19T03:53:20.802Z,933.92
2017-03-19T03:53:49.022Z,933.92
2017-03-19T03:54:17.280Z,933.91
2017-03-19T03:54:45.561Z,933.89
2017-03-19T03:55:13.955Z,933.87
2017-03-19T03:55:42.031Z,933.9
2017-03-19T03:56:10.277Z,933.88
2017-03-19T03:56:38.486Z,933.91
2017-03-19T03:57:06.725Z,933.88
2017-03-19T03:57:35.023Z,933.84
2017-03-19T03:58:03.302Z,933.83
2017-03-19T03:58:31.549Z,933.88
2017-03-19T03:58:59.769Z,933.87
2017-03-19T03:59:28.069Z,933.85
2017-03-19T03:59:56.276Z,933.86
2017-03-19T04:00:24.425Z,933.84
2017-03-19T04:00:52.492Z,933.88
2017-03-19T04:01:20.678Z,933.81
2017-03-19T04:01:49.106Z,933.82
2017-03-19T04:02:17.349Z,933.8
2017-03-19T04:02:45.621Z,933.77
2017-03-19T04:03:13.828Z,933.76
2017-03-19T04:03:41.898Z,933.79
2017-03-19T04:04:10.073Z,933.76
2017-03-19T04:04:38.218Z,933.76
2017-03-19T04:05:06.369Z,933.74
2017-03-19T04:05:34.450Z,933.73
2017-03-19T04:06:02.716Z,933.7
2017-03-19T04:06:30.980Z,933.72
2017-03-19T04:06:59.336Z,933.74
2017-03-19T04:07:27.599Z,933.71
2017-03-19T04:07:55.554Z,933.73
2017-03-19T04:08:23.790Z,933.71
2017-03-19T04:08:51.923Z,933.71
2017-03-19T04:09:20.194Z,933.74
2017-03-19T04:09:48.443Z,933.71
2017-03-19T04:10:16.537Z,933.73
2017-03-19T04:10:44.790Z,933.67
2017-03-19T04:11:12.854Z,933.66
2017-03-19T04:11:40.908Z,933.7
2017-03-19T04:12:09.219Z,933.68
2017-03-19T04:12:37.405Z,933.67
2017-03-19T04:13:05.515Z,933.67
2017-03-19T04:13:33.705Z,933.65
2017-03-19T04:14:01.708Z,933.66
2017-03-19T04:14:29.964Z,933.65
2017-03-19T04:14:58.205Z,933.64
2017-03-19T04:15:26.261Z,933.67
2017-03-19T04:15:54.320Z,933.63
2017-03-19T04:16:22.543Z,933.59
2017-03-19T04:16:50.743Z,933.63
2017-03-19T04:17:19.079Z,933.61
2017-03-19T04:17:47.145Z,933.59
2017-03-19T04:18:15.348Z,933.56
2017-03-19T04:18:43.567Z,933.56
2017-03-19T04:19:11.770Z,933.55
2017-03-19T04:19:40.001Z,933.54
2017-03-19T04:20:08.162Z,933.58
2017-03-19T04:20:36.404Z,933.51
2017-03-19T04:21:04.662Z,933.53
2017-03-19T04:21:32.817Z,933.53
2017-03-19T04:22:01.087Z,933.54
2017-03-19T04:22:29.213Z,933.54
2017-03-19T04:22:57.299Z,933.54
2017-03-19T04:23:25.415Z,933.51
2017-03-19T04:23:53.515Z,933.53
2017-03-19T04:24:21.735Z,933.56
2017-03-19T04:24:49.864Z,933.53
2017-03-19T04:25:18.101Z,933.55
2017-03-19T04:25:46.472Z,933.54
2017-03-19T04:26:14.726Z,933.5
2017-03-19T04:26:42.868Z,933.51
2017-03-19T04:27:11.056Z,933.51
2017-03-19T04:27:39.216Z,933.51
2017-03-19T04:28:07.479Z,933.48
2017-03-19T04:28:35.631Z,933.47
2017-03-19T04:29:03.606Z,933.47
2017-03-19T04:29:31.845Z,933.44
2017-03-19T04:29:59.966Z,933.43
2017-03-19T04:30:28.243Z,933.43
2017-03-19T04:30:56.409Z,933.43
2017-03-19T04:31:24.592Z,933.4
2017-03-19T04:31:52.644Z,933.38
2017-03-19T04:32:20.986Z,933.33
2017-03-19T04:32:49.125Z,933.34
2017-03-19T04:33:17.371Z,933.31
2017-03-19T04:33:45.355Z,933.29
2017-03-19T04:34:13.640Z,933.29
2017-03-19T04:34:41.821Z,933.32
2017-03-19T04:35:09.962Z,933.33
2017-03-19T04:35:38.219Z,933.25
2017-03-19T04:36:06.482Z,933.27
2017-03-19T04:36:34.645Z,933.24
2017-03-19T04:37:02.909Z,933.27
2017-03-19T04:37:30.953Z,933.26
2017-03-19T04:37:59.098Z,933.29
2017-03-19T04:38:27.223Z,933.3
2017-03-19T04:38:55.354Z,933.24
2017-03-19T04:39:23.486Z,933.32
2017-03-19T04:39:51.728Z,933.3
2017-03-19T04:40:19.953Z,933.26
2017-03-19T04:40:48.096Z,933.22
2017-03-19T04:41:16.279Z,933.23
2017-03-19T04:41:44.446Z,933.27
2017-03-19T04:42:12.547Z,933.28
2017-03-19T04:42:40.797Z,933.19
2017-03-19T04:43:09.067Z,933.23
2017-03-19T04:43:37.202Z,933.21
2017-03-19T04:44:05.357Z,933.21
2017-03-19T04:44:33.646Z,933.22
2017-03-19T04:45:01.816Z,933.18
2017-03-19T04:45:30.041Z,933.2
2017-03-19T04:45:58.290Z,933.24
2017-03-19T04:46:26.523Z,933.25
2017-03-19T04:46:54.742Z,933.22
2017-03-19T04:47:22.977Z,933.18
2017-03-19T04:47:51.207Z,933.19
2017-03-19T04:48:19.357Z,933.23
2017-03-19T04:48:47.616Z,933.21
2017-03-19T04:49:15.882Z,933.18
2017-03-19T04:49:44.042Z,933.16
2017-03-19T04:50:12.247Z,933.14
2017-03-19T04:50:40.463Z,933.16
2017-03-19T04:51:08.691Z,933.15
2017-03-19T04:51:36.823Z,933.14
2017-03-19T04:52:04.950Z,933.12
2017-03-19T04:52:33.185Z,933.24
2017-03-19T04:53:01.424Z,933.11
2017-03-19T04:53:29.593Z,933.13
2017-03-19T04:53:57.736Z,933.1
2017-03-19T04:54:25.874Z,933.12
2017-03-19T04:54:54.078Z,933.07
2017-03-19T04:55:22.275Z,933.1
2017-03-19T04:55:50.391Z,933.07
2017-03-19T04:56:18.537Z,933.09
2017-03-19T04:56:46.861Z,933.07
2017-03-19T04:57:15.203Z,933.07
2017-03-19T04:57:43.274Z,933.08
2017-03-19T04:58:11.552Z,933.07
2017-03-19T04:58:39.814Z,933.11
2017-03-19T04:59:08.054Z,933.04
2017-03-19T04:59:36.296Z,933.06
2017-03-19T05:00:04.594Z,933.06
2017-03-19T05:00:32.679Z,933.05
2017-03-19T05:01:00.851Z,933.03
2017-03-19T05:01:29.004Z,933.01
2017-03-19T05:01:57.191Z,933.06
2017-03-19T05:02:25.654Z,933.09
2017-03-19T05:02:53.809Z,933.05
2017-03-19T05:03:22.066Z,933.03
2017-03-19T05:03:50.228Z,932.98
2017-03-19T05:04:18.429Z,932.97
2017-03-19T05:04:46.676Z,932.97
2017-03-19T05:05:14.851Z,933.01
2017-03-19T05:05:43.091Z,932.98
2017-03-19T05:06:11.216Z,932.97
2017-03-19T05:06:39.400Z,932.99
2017-03-19T05:07:07.664Z,932.97
2017-03-19T05:07:36.031Z,932.96
2017-03-19T05:08:04.193Z,932.96
2017-03-19T05:08:32.446Z,932.95
2017-03-19T05:09:00.722Z,932.92
2017-03-19T05:09:28.968Z,932.92
2017-03-19T05:09:57.238Z,932.94
2017-03-19T05:10:25.379Z,932.93
2017-03-19T05:10:53.642Z,932.9
2017-03-19T05:11:21.662Z,932.95
2017-03-19T05:11:49.729Z,932.9
2017-03-19T05:12:17.902Z,932.89
2017-03-19T05:12:46.054Z,932.91
2017-03-19T05:13:14.247Z,932.91
2017-03-19T05:13:42.505Z,932.88
2017-03-19T05:14:10.693Z,932.9
2017-03-19T05:14:38.868Z,932.89
2017-03-19T05:15:07.005Z,932.88
2017-03-19T05:15:35.172Z,932.88
2017-03-19T05:16:03.384Z,932.88
2017-03-19T05:16:31.665Z,932.9
2017-03-19T05:16:59.832Z,932.9
2017-03-19T05:17:28.199Z,932.92
2017-03-19T05:17:56.457Z,932.89
2017-03-19T05:18:24.596Z,932.86
2017-03-19T05:18:52.810Z,932.86
2017-03-19T05:19:21.112Z,932.88
2017-03-19T05:19:49.128Z,932.88
2017-03-19T05:20:17.208Z,932.81
2017-03-19T05:20:45.436Z,932.93
2017-03-19T05:21:13.695Z,932.87
2017-03-19T05:21:41.946Z,932.84
2017-03-19T05:22:10.051Z,932.87
2017-03-19T05:22:38.329Z,932.86
2017-03-19T05:23:06.580Z,932.85
2017-03-19T05:23:34.687Z,932.88
2017-03-19T05:24:02.878Z,932.9
2017-03-19T05:24:31.145Z,932.9
2017-03-19T05:24:59.348Z,932.85
2017-03-19T05:25:27.548Z,932.94
2017-03-19T05:25:55.793Z,932.85
2017-03-19T05:26:23.970Z,932.88
2017-03-19T05:26:52.178Z,932.86
2017-03-19T05:27:20.407Z,932.88
2017-03-19T05:27:48.788Z,932.87
2017-03-19T05:28:16.958Z,932.83
2017-03-19T05:28:45.012Z,932.83
2017-03-19T05:29:13.279Z,932.81
2017-03-19T05:29:41.470Z,932.78
2017-03-19T05:30:09.550Z,932.81
2017-03-19T05:30:37.687Z,932.8
2017-03-19T05:31:05.919Z,932.8
2017-03-19T05:31:33.976Z,932.78
2017-03-19T05:32:02.232Z,932.79
2017-03-19T05:32:30.479Z,932.75
2017-03-19T05:32:58.592Z,932.75
2017-03-19T05:33:26.826Z,932.75
2017-03-19T05:33:54.944Z,932.75
2017-03-19T05:34:23.004Z,932.79
2017-03-19T05:34:51.202Z,932.74
2017-03-19T05:35:19.505Z,932.72
2017-03-19T05:35:47.789Z,932.73
2017-03-19T05:36:16.028Z,932.73
2017-03-19T05:36:44.136Z,932.7
2017-03-19T05:37:12.299Z,932.74
2017-03-19T05:37:40.451Z,932.69
2017-03-19T05:38:08.737Z,932.7
2017-03-19T05:38:36.852Z,932.71
2017-03-19T05:39:05.003Z,932.74
2017-03-19T05:39:33.100Z,932.69
2017-03-19T05:40:01.310Z,932.68
2017-03-19T05:40:29.560Z,932.69
2017-03-19T05:40:57.816Z,932.7
2017-03-19T05:41:25.958Z,932.66
2017-03-19T05:41:54.117Z,932.66
2017-03-19T05:42:22.243Z,932.65
2017-03-19T05:42:50.505Z,932.66
2017-03-19T05:43:18.766Z,932.67
2017-03-19T05:43:47.019Z,932.67
2017-03-19T05:44:15.279Z,932.66
2017-03-19T05:44:43.457Z,932.65
2017-03-19T05:45:11.680Z,932.7
2017-03-19T05:45:39.848Z,932.68
2017-03-19T05:46:08.001Z,932.68
2017-03-19T05:46:36.283Z,932.66
2017-03-19T05:47:04.515Z,932.65
2017-03-19T05:47:32.667Z,932.67
2017-03-19T05:48:01.114Z,932.67
2017-03-19T05:48:29.363Z,932.69
2017-03-19T05:48:57.548Z,932.63
2017-03-19T05:49:25.786Z,932.67
2017-03-19T05:49:53.945Z,932.64
2017-03-19T05:50:22.181Z,932.62
2017-03-19T05:50:50.421Z,932.62
2017-03-19T05:51:18.581Z,932.59
2017-03-19T05:51:46.745Z,932.56
2017-03-19T05:52:14.988Z,932.58
2017-03-19T05:52:43.139Z,932.56
2017-03-19T05:53:11.436Z,932.57